Time;durP1;ratioP1;P1;durP2;ratioP2;P2;SDS_P1;SDS_P2;PMS_P1;PMS_P2;Temp;Humidity;BMP_temperature;BMP_pressure;BME280_temperature;BME280_humidity;BME280_pressure;Samples;Min_cycle;Max_cycle;Signal;HPM_P1;HPM_P2
2021/07/12 00:01:08;;;;;;;4.18;3.67;;;16.10;99.90;;;15.68;100.00;100733.72;4184780;28;20084;-73
2021/07/12 00:03:09;;;;;;;4.35;3.55;;;16.10;99.90;;;15.66;100.00;100735.72;4185488;28;20093;-73
2021/07/12 00:05:12;;;;;;;5.72;3.63;;;16.00;99.90;;;15.68;100.00;100731.06;4186135;28;20484;-73
2021/07/12 00:07:13;;;;;;;5.75;3.28;;;16.00;99.90;;;15.67;100.00;100726.75;4184879;28;20079;-73
2021/07/12 00:09:14;;;;;;;4.22;3.30;;;16.00;99.90;;;15.66;100.00;100727.75;4185927;28;20025;-73
2021/07/12 00:11:14;;;;;;;4.60;4.20;;;16.00;99.90;;;15.72;100.00;100713.69;4184699;28;20447;-73
2021/07/12 00:13:16;;;;;;;4.78;3.70;;;16.10;99.90;;;15.74;100.00;100715.16;4184890;28;20029;-73
2021/07/12 00:15:20;;;;;;;4.10;3.45;;;16.10;99.90;;;15.69;100.00;100704.25;4184668;28;20143;-73
2021/07/12 00:17:21;;;;;;;5.05;3.38;;;16.10;99.90;;;15.74;100.00;100698.41;4183632;28;20021;-72
2021/07/12 00:19:22;;;;;;;8.90;4.35;;;16.00;99.90;;;15.70;100.00;100694.47;4185711;28;20522;-73
2021/07/12 00:21:22;;;;;;;5.85;3.35;;;16.10;99.90;;;15.72;100.00;100692.41;4184646;28;20119;-73
2021/07/12 00:23:23;;;;;;;4.80;3.30;;;16.10;99.90;;;15.70;100.00;100689.97;4167933;28;20481;-73
2021/07/12 00:25:26;;;;;;;4.40;3.08;;;16.10;99.90;;;15.72;100.00;100693.25;4184421;28;20025;-73
2021/07/12 00:27:27;;;;;;;4.90;3.22;;;16.10;99.90;;;15.78;100.00;100696.97;4184364;28;20017;-73
2021/07/12 00:29:28;;;;;;;3.67;3.38;;;16.10;99.90;;;15.82;100.00;100707.06;4184513;28;20047;-73
2021/07/12 00:31:29;;;;;;;5.63;3.55;;;16.10;99.90;;;15.82;100.00;100701.75;4184426;28;20451;-73
2021/07/12 00:33:32;;;;;;;3.78;3.45;;;16.10;99.90;;;15.80;100.00;100695.78;4184088;28;20037;-73
2021/07/12 00:35:33;;;;;;;5.00;3.65;;;16.20;99.90;;;15.88;100.00;100697.50;4185463;28;20365;-73
2021/07/12 00:37:34;;;;;;;3.88;3.22;;;16.20;99.90;;;15.87;100.00;100696.66;4184415;28;20047;-73
2021/07/12 00:39:35;;;;;;;5.03;3.63;;;16.20;99.90;;;15.86;100.00;100695.00;4184270;28;20041;-73
2021/07/12 00:41:37;;;;;;;3.92;3.10;;;16.20;99.90;;;15.83;100.00;100695.38;4184313;28;20060;-73
2021/07/12 00:43:39;;;;;;;5.80;3.42;;;16.20;99.90;;;15.86;100.00;100688.88;4184179;28;20021;-73
2021/07/12 00:45:39;;;;;;;7.05;3.38;;;16.20;99.90;;;15.89;100.00;100691.13;4184353;28;20035;-72
2021/07/12 00:47:41;;;;;;;4.47;3.33;;;16.20;99.90;;;15.88;100.00;100670.88;4185128;28;20025;-72
2021/07/12 00:49:42;;;;;;;3.47;3.17;;;16.20;99.90;;;15.87;100.00;100669.22;4185393;28;20403;-73
2021/07/12 00:51:43;;;;;;;6.93;3.78;;;16.20;99.90;;;15.86;100.00;100662.28;4167501;28;20026;-72
2021/07/12 00:53:44;;;;;;;7.18;3.83;;;16.20;99.90;;;15.94;100.00;100670.94;4184250;28;20036;-73
2021/07/12 00:55:48;;;;;;;5.88;3.63;;;16.30;99.90;;;15.80;100.00;100663.84;4184157;28;20527;-73
2021/07/12 00:57:50;;;;;;;3.85;3.47;;;16.20;99.90;;;15.73;100.00;100667.47;4184075;28;20028;-73
2021/07/12 00:59:52;;;;;;;5.75;3.33;;;16.20;99.90;;;15.71;100.00;100661.53;4183923;28;20078;-73
2021/07/12 01:01:53;;;;;;;5.55;3.50;;;16.20;99.90;;;15.71;100.00;100661.53;4184134;28;20401;-73
2021/07/12 01:03:54;;;;;;;4.60;3.67;;;16.20;99.90;;;15.69;100.00;100655.56;4150690;28;20030;-73
2021/07/12 01:05:56;;;;;;;6.18;3.22;;;16.20;99.90;;;15.73;100.00;100663.00;4184189;28;20035;-73
2021/07/12 01:08:01;;;;;;;5.18;4.07;;;16.20;99.90;;;15.76;100.00;100664.44;4185103;28;20017;-73
2021/07/12 01:10:04;;;;;;;5.70;3.67;;;16.10;99.90;;;15.87;100.00;100659.41;4184033;28;20469;-73
2021/07/12 01:12:22;;;;;;;4.90;3.88;;;16.30;99.90;;;16.00;100.00;100664.84;4185115;28;20035;-73
2021/07/12 01:14:31;;;;;;;6.68;4.45;;;16.20;99.90;;;16.04;100.00;100671.41;4183865;28;20029;-73
2021/07/12 01:16:47;;;;;;;3.90;3.55;;;16.30;99.90;;;16.02;100.00;100667.31;4185178;28;20029;-72
2021/07/12 01:19:17;;;;;;;5.07;4.18;;;16.40;99.90;;;16.03;100.00;100653.84;4184775;28;20025;-72
2021/07/12 01:21:53;;;;;;;7.68;3.72;;;16.40;99.90;;;16.12;100.00;100661.66;4183917;28;20024;-72
2021/07/12 01:24:11;;;;;;;5.40;3.55;;;16.40;99.90;;;16.14;100.00;100671.09;4154819;28;20056;-72
2021/07/12 01:27:11;;;;;;;4.43;3.58;;;16.40;99.90;;;16.20;100.00;100664.16;4172073;28;20017;-72
2021/07/12 01:29:30;;;;;;;7.38;3.25;;;16.50;99.90;;;16.19;100.00;100668.66;4183887;28;20104;-73
2021/07/12 01:32:14;;;;;;;5.57;4.22;;;16.50;99.90;;;16.10;100.00;100666.38;4185028;28;20025;-73
2021/07/12 01:34:29;;;;;;;6.63;4.22;;;16.40;99.90;;;16.09;100.00;100673.53;4183958;28;20032;-73
2021/07/12 01:36:57;;;;;;;6.72;4.18;;;16.50;99.90;;;16.14;100.00;100665.78;4183776;28;20515;-72
2021/07/12 01:39:02;;;;;;;5.55;4.20;;;16.50;99.90;;;16.15;100.00;100666.59;4184733;28;20476;-73
2021/07/12 01:41:49;;;;;;;5.65;3.67;;;16.50;99.90;;;16.10;100.00;100664.50;4200957;28;20104;-73
2021/07/12 01:44:44;;;;;;;6.00;3.80;;;16.50;99.90;;;16.22;100.00;100670.13;4183495;28;20025;-73
2021/07/12 01:46:57;;;;;;;4.30;3.83;;;16.50;99.90;;;16.11;100.00;100666.16;4201292;28;20033;-73
2021/07/12 01:49:16;;;;;;;3.65;3.30;;;16.50;99.90;;;16.01;100.00;100658.50;4184417;28;20064;-73
2021/07/12 01:51:30;;;;;;;4.57;3.35;;;16.40;99.90;;;16.02;100.00;100657.50;4183555;28;20029;-72
2021/07/12 01:53:43;;;;;;;4.05;3.30;;;16.40;99.90;;;15.97;100.00;100654.59;4167881;28;20116;-72
2021/07/12 01:56:17;;;;;;;4.27;3.40;;;16.40;99.90;;;15.93;100.00;100656.00;4184230;28;20488;-72
2021/07/12 01:58:40;;;;;;;6.25;3.95;;;16.40;99.90;;;15.99;100.00;100657.06;4184170;28;20271;-72
2021/07/12 02:00:46;;;;;;;4.07;3.67;;;16.40;99.90;;;16.00;100.00;100640.09;4183973;28;20484;-72
2021/07/12 02:02:53;;;;;;;5.40;3.88;;;16.40;99.90;;;16.03;100.00;100634.38;4201034;28;20453;-72
2021/07/12 02:04:59;;;;;;;4.43;3.90;;;16.40;99.90;;;16.07;100.00;100643.59;4183212;28;20577;-72
2021/07/12 02:07:01;;;;;;;4.15;3.28;;;16.40;99.90;;;16.04;100.00;100638.66;4183551;28;20025;-73
2021/07/12 02:09:03;;;;;;;3.95;3.20;;;16.40;99.90;;;16.07;100.00;100640.13;4183618;28;20028;-73
2021/07/12 02:11:05;;;;;;;4.35;3.42;;;16.40;99.90;;;16.07;100.00;100643.59;4183532;28;20029;-73
2021/07/12 02:13:06;;;;;;;7.82;3.40;;;16.50;99.90;;;16.11;100.00;100650.19;4183348;28;20609;-73
2021/07/12 02:15:08;;;;;;;4.32;3.90;;;16.50;99.90;;;16.09;100.00;100640.75;4201326;28;20024;-73
2021/07/12 02:17:11;;;;;;;4.50;3.72;;;16.50;99.90;;;16.02;100.00;100625.56;4166483;28;20060;-72
2021/07/12 02:19:14;;;;;;;4.20;3.67;;;16.40;99.90;;;16.09;100.00;100632.78;4166823;28;20086;-72
2021/07/12 02:21:16;;;;;;;5.07;3.47;;;16.50;99.90;;;16.09;100.00;100625.63;4201322;28;20457;-72
2021/07/12 02:23:18;;;;;;;4.55;3.70;;;16.40;99.90;;;16.09;100.00;100633.59;4166620;28;20037;-72
2021/07/12 02:25:20;;;;;;;4.10;3.50;;;16.40;99.90;;;16.09;100.00;100628.28;4183254;28;20467;-73
2021/07/12 02:27:23;;;;;;;3.78;3.30;;;16.40;99.90;;;16.12;100.00;100630.56;4166717;28;20053;-72
2021/07/12 02:29:25;;;;;;;4.18;3.60;;;16.50;99.90;;;16.14;100.00;100622.34;4201194;28;20028;-73
2021/07/12 02:31:26;;;;;;;5.15;3.40;;;16.50;99.90;;;16.20;100.00;100621.59;4183439;28;20029;-73
2021/07/12 02:33:28;;;;;;;6.15;3.90;;;16.50;99.90;;;16.10;100.00;100623.78;4183088;28;20064;-72
2021/07/12 02:35:30;;;;;;;5.28;4.25;;;16.50;99.90;;;16.06;100.00;100626.00;4183224;28;20500;-72
2021/07/12 02:37:39;;;;;;;4.95;3.63;;;16.40;99.90;;;16.09;100.00;100620.28;4183437;28;20025;-72
2021/07/12 02:39:41;;;;;;;4.35;3.40;;;16.50;99.90;;;16.09;100.00;100619.47;4182794;28;20123;-72
2021/07/12 02:41:43;;;;;;;4.63;3.55;;;16.50;99.90;;;16.10;100.00;100629.91;4182198;28;20032;-73
2021/07/12 02:43:47;;;;;;;4.80;3.80;;;16.50;99.90;;;16.09;100.00;100620.28;4186040;28;20071;-72
2021/07/12 02:45:49;;;;;;;5.70;3.30;;;16.40;99.90;;;16.07;100.00;100611.66;4186283;28;20033;-72
2021/07/12 02:47:51;;;;;;;5.72;3.92;;;16.50;99.90;;;16.12;100.00;100614.59;4185823;28;20021;-72
2021/07/12 02:49:52;;;;;;;7.55;4.10;;;16.50;99.90;;;16.24;100.00;100610.38;4186098;28;20025;-73
2021/07/12 02:51:57;;;;;;;5.07;4.03;;;16.50;99.90;;;16.26;100.00;100604.84;4185918;28;20025;-73
2021/07/12 02:54:04;;;;;;;4.50;3.95;;;16.60;99.90;;;16.27;100.00;100615.28;4185896;28;20096;-73
2021/07/12 02:56:05;;;;;;;7.95;3.90;;;16.60;99.90;;;16.22;100.00;100600.94;4186116;28;20029;-72
2021/07/12 02:58:06;;;;;;;5.22;3.78;;;16.60;99.90;;;16.21;100.00;100602.78;4185998;28;20056;-72
2021/07/12 03:00:11;;;;;;;4.93;4.47;;;16.50;99.90;;;16.20;100.00;100608.28;4185828;28;20021;-72
2021/07/12 03:02:12;;;;;;;5.03;3.85;;;16.50;99.90;;;16.24;100.00;100601.56;4185669;28;20036;-73
2021/07/12 03:04:13;;;;;;;5.00;4.40;;;16.60;99.90;;;16.24;100.00;100607.69;4185676;28;20400;-72
2021/07/12 03:06:16;;;;;;;7.95;4.38;;;16.60;99.90;;;16.23;100.00;100600.72;4185822;28;20060;-72
2021/07/12 03:08:28;;;;;;;6.40;4.40;;;16.60;99.90;;;16.19;100.00;100602.13;4185953;28;20048;-72
2021/07/12 03:10:30;;;;;;;8.73;4.35;;;16.60;99.90;;;16.19;100.00;100596.81;4186964;28;20033;-72
2021/07/12 03:12:52;;;;;;;10.57;5.18;;;16.60;99.90;;;16.25;100.00;100593.34;4185775;28;20052;-72
2021/07/12 03:15:07;;;;;;;6.30;4.18;;;16.60;99.90;;;16.22;100.00;100598.28;4185835;28;20033;-72
2021/07/12 03:17:12;;;;;;;4.80;4.30;;;16.60;99.90;;;16.18;100.00;100587.19;4186692;28;20659;-72
2021/07/12 03:19:23;;;;;;;6.38;4.43;;;16.60;99.90;;;16.27;100.00;100602.00;4185524;28;20033;-72
2021/07/12 03:21:25;;;;;;;5.55;4.72;;;16.60;99.90;;;16.27;100.00;100591.34;4186922;28;20025;-72
2021/07/12 03:23:30;;;;;;;4.95;4.07;;;16.60;99.90;;;16.24;100.00;100594.41;4168875;28;20048;-72
2021/07/12 03:25:35;;;;;;;4.85;3.90;;;16.60;99.90;;;16.23;100.00;100583.94;4185516;28;20021;-73
2021/07/12 03:27:37;;;;;;;5.65;3.90;;;16.60;99.90;;;16.25;100.00;100587.22;4185380;28;20025;-72
2021/07/12 03:29:40;;;;;;;7.13;4.72;;;16.60;99.90;;;16.25;100.00;100592.53;4185624;28;20365;-73
2021/07/12 03:31:43;;;;;;;8.65;4.75;;;16.60;99.90;;;16.29;100.00;100586.63;4185552;28;20031;-72
2021/07/12 03:33:45;;;;;;;8.13;4.77;;;16.60;99.90;;;16.24;100.00;100580.25;4186375;28;20029;-72
2021/07/12 03:35:48;;;;;;;8.00;4.97;;;16.60;99.90;;;16.30;100.00;100582.97;4168865;28;20112;-72
2021/07/12 03:37:49;;;;;;;6.65;4.40;;;16.60;99.90;;;16.25;100.00;100587.22;4185337;28;20029;-72
2021/07/12 03:39:51;;;;;;;8.27;4.43;;;16.60;99.90;;;16.24;100.00;100585.59;4185192;28;20447;-72
2021/07/12 03:41:53;;;;;;;7.78;4.35;;;16.60;99.90;;;16.34;100.00;100586.03;4182421;28;20087;-72
2021/07/12 03:43:54;;;;;;;5.22;4.18;;;16.60;99.90;;;16.32;100.00;100582.75;4186461;28;20112;-72
2021/07/12 03:45:59;;;;;;;5.93;4.82;;;16.60;99.90;;;16.30;100.00;100585.63;4168751;28;20475;-73
2021/07/12 03:48:00;;;;;;;8.70;4.93;;;16.60;99.90;;;16.29;100.00;100581.31;4184908;28;20029;-73
2021/07/12 03:50:14;;;;;;;5.18;4.40;;;16.60;99.90;;;16.24;100.00;100574.94;4186252;28;20483;-73
2021/07/12 03:52:16;;;;;;;7.10;4.20;;;16.60;99.90;;;16.29;100.00;100575.16;4184235;28;20180;-73
2021/07/12 03:54:18;;;;;;;6.38;4.65;;;16.60;99.90;;;16.32;100.00;100578.25;4185189;28;20029;-73
2021/07/12 03:56:19;;;;;;;7.00;4.43;;;16.70;99.90;;;16.23;100.00;100575.94;4186264;28;20055;-73
2021/07/12 03:58:21;;;;;;;7.85;4.93;;;16.70;99.90;;;16.19;100.00;100580.84;4186127;28;20115;-74
2021/07/12 04:00:25;;;;;;;6.85;4.72;;;16.60;99.90;;;16.21;100.00;100570.00;4185091;28;20085;-73
2021/07/12 04:02:26;;;;;;;5.22;4.32;;;16.60;99.90;;;16.17;100.00;100580.22;4201147;28;20042;-74
2021/07/12 04:04:28;;;;;;;6.05;4.38;;;16.60;99.90;;;16.16;100.00;100578.56;4184924;28;20119;-73
2021/07/12 04:06:32;;;;;;;4.93;4.30;;;16.60;99.90;;;16.17;100.00;100579.38;4184735;28;20029;-73
2021/07/12 04:08:32;;;;;;;4.15;3.60;;;16.60;99.90;;;16.09;100.00;100571.56;4184991;28;20381;-73
2021/07/12 04:10:33;;;;;;;13.75;4.03;;;16.50;99.90;;;16.18;100.00;100578.38;4184738;28;20075;-74
2021/07/12 04:12:34;;;;;;;3.28;2.97;;;16.50;99.90;;;16.17;100.00;100569.56;4186004;28;20399;-74
2021/07/12 04:14:35;;;;;;;3.85;3.22;;;16.60;99.90;;;16.16;100.00;100573.25;4185808;28;20044;-73
2021/07/12 04:16:36;;;;;;;4.68;2.90;;;16.50;99.90;;;16.14;100.00;100577.94;4185981;28;20032;-73
2021/07/12 04:18:37;;;;;;;4.70;3.40;;;16.50;99.90;;;16.16;100.00;100578.56;4167780;28;20709;-73
2021/07/12 04:20:41;;;;;;;3.58;2.58;;;16.50;99.90;;;16.18;100.00;100567.75;4196544;28;20055;-73
2021/07/12 04:22:43;;;;;;;;;;;16.60;99.90;;;16.17;100.00;100579.38;4186095;28;20033;-73
2021/07/12 04:24:44;;;;;;;5.35;2.90;;;16.60;99.90;;;16.17;100.00;100569.56;4184505;28;19913;-73
2021/07/12 04:26:45;;;;;;;3.75;2.92;;;16.60;99.90;;;16.16;100.00;100567.13;4184508;28;20021;-73
2021/07/12 04:28:46;;;;;;;2.95;2.65;;;16.50;99.90;;;16.02;100.00;100571.53;4185706;28;20032;-73
2021/07/12 04:30:47;;;;;;;4.18;3.00;;;16.50;99.90;;;16.13;100.00;100564.84;4184391;28;20055;-73
2021/07/12 04:32:48;;;;;;;2.92;2.63;;;16.60;99.90;;;16.10;100.00;100563.38;4185484;28;20033;-73
2021/07/12 04:34:49;;;;;;;3.45;3.13;;;16.60;99.90;;;16.01;100.00;100568.03;4185662;28;20029;-73
2021/07/12 04:36:50;;;;;;;5.13;2.70;;;16.50;99.90;;;16.06;100.00;100570.13;4184246;28;20047;-73
2021/07/12 04:38:51;;;;;;;3.83;3.08;;;16.50;99.90;;;16.20;100.00;100576.34;4185589;28;20036;-73
2021/07/12 04:40:52;;;;;;;5.13;2.80;;;16.50;99.90;;;16.20;100.00;100571.84;4184109;28;20049;-73
2021/07/12 04:42:53;;;;;;;2.97;2.67;;;16.60;99.90;;;16.18;100.00;100575.72;4184276;28;20030;-73
2021/07/12 04:44:54;;;;;;;3.33;2.88;;;16.50;99.90;;;16.08;100.00;100570.75;4184195;28;20059;-73
2021/07/12 04:46:57;;;;;;;2.65;2.45;;;16.60;99.90;;;16.09;100.00;100572.41;4183828;28;20021;-73
2021/07/12 04:48:58;;;;;;;2.80;2.37;;;16.60;99.90;;;16.10;100.00;100583.88;4184230;28;20511;-73
2021/07/12 04:50:59;;;;;;;3.65;2.47;;;16.60;99.90;;;15.96;100.00;100578.44;4184226;28;20052;-73
2021/07/12 04:53:00;;;;;;;2.92;2.17;;;16.50;99.90;;;15.95;100.00;100587.44;4185312;28;20025;-73
2021/07/12 04:55:05;;;;;;;2.50;1.80;;;16.50;99.90;;;15.94;100.00;100591.13;4184003;28;20029;-73
2021/07/12 04:57:06;;;;;;;4.18;1.73;;;16.50;99.90;;;15.92;100.00;100582.50;4185390;28;20033;-73
2021/07/12 04:59:09;;;;;;;1.38;1.27;;;16.50;99.90;;;15.86;100.00;100587.81;4185279;28;20040;-73
2021/07/12 05:01:11;;;;;;;1.77;0.90;;;16.50;99.90;;;15.63;100.00;100579.22;4184084;28;20036;-73
2021/07/12 05:03:12;;;;;;;2.00;1.27;;;16.40;99.90;;;15.68;100.00;100580.28;4183239;28;20033;-73
2021/07/12 05:05:14;;;;;;;1.83;1.15;;;16.40;99.90;;;15.54;100.00;100583.84;4185144;28;20025;-73
2021/07/12 05:07:15;;;;;;;2.60;1.23;;;16.30;99.90;;;15.43;100.00;100585.19;4184160;28;20155;-73
2021/07/12 05:09:16;;;;;;;4.20;1.40;;;16.30;99.90;;;15.36;100.00;100581.63;4185351;28;20504;-73
2021/07/12 05:11:17;;;;;;;2.35;1.40;;;16.20;99.90;;;15.41;100.00;100589.84;4185010;28;20033;-73
2021/07/12 05:13:18;;;;;;;2.08;1.40;;;16.10;99.90;;;15.42;100.00;100594.16;4184049;28;20499;-73
2021/07/12 05:15:20;;;;;;;4.40;2.40;;;16.10;99.90;;;15.35;100.00;100587.94;4183924;28;20116;-73
2021/07/12 05:17:21;;;;;;;1.83;1.60;;;16.10;99.90;;;15.24;100.00;100592.94;4184805;28;20523;-73
2021/07/12 05:19:21;;;;;;;2.20;1.90;;;16.00;99.90;;;15.30;100.00;100590.38;4183807;28;20041;-73
2021/07/12 05:21:23;;;;;;;3.90;2.03;;;16.00;99.90;;;15.29;100.00;100598.53;4185186;28;20032;-73
2021/07/12 05:23:24;;;;;;;5.10;1.77;;;16.00;99.90;;;15.36;100.00;100592.25;4183806;28;20032;-73
2021/07/12 05:25:26;;;;;;;2.30;1.77;;;16.00;99.90;;;15.35;100.00;100585.28;4184933;28;20106;-73
2021/07/12 05:27:27;;;;;;;3.22;2.22;;;16.00;99.90;;;15.29;100.00;100585.25;4183713;28;20534;-73
2021/07/12 05:29:28;;;;;;;2.63;1.83;;;16.00;99.90;;;15.27;100.00;100597.88;4184677;28;20052;-73
2021/07/12 05:31:29;;;;;;;2.80;1.85;;;16.00;99.90;;;15.40;100.00;100601.50;4183755;28;20055;-73
2021/07/12 05:33:30;;;;;;;3.65;2.10;;;16.00;99.90;;;15.46;100.00;100599.91;4184650;28;20021;-73
2021/07/12 05:35:31;;;;;;;3.55;2.15;;;16.00;99.90;;;15.53;100.00;100608.00;4183568;28;20025;-73
2021/07/12 05:37:32;;;;;;;3.42;2.60;;;16.00;99.90;;;15.44;100.00;100594.78;4184721;28;20021;-73
2021/07/12 05:39:33;;;;;;;5.18;2.60;;;16.00;99.90;;;15.34;100.00;100612.06;4183370;28;20100;-73
2021/07/12 05:41:34;;;;;;;3.47;2.70;;;16.10;99.90;;;15.45;100.00;100612.38;4194623;28;20558;-73
2021/07/12 05:43:35;;;;;;;5.72;3.38;;;16.10;99.90;;;15.44;100.00;100608.06;4184610;28;20072;-73
2021/07/12 05:45:36;;;;;;;2.75;2.13;;;16.10;99.90;;;15.59;100.00;100617.88;4183716;28;20093;-73
2021/07/12 05:47:37;;;;;;;5.90;2.72;;;16.20;99.90;;;15.55;100.00;100604.13;4184561;28;20071;-73
2021/07/12 05:49:38;;;;;;;3.80;2.60;;;16.20;99.90;;;15.54;100.00;100613.09;4183546;28;20139;-73
2021/07/12 05:51:39;;;;;;;6.80;2.70;;;16.20;99.90;;;15.59;100.00;100613.34;4166915;28;20083;-73
2021/07/12 05:53:40;;;;;;;6.57;2.85;;;16.30;99.90;;;15.45;100.00;100604.41;4184821;28;20047;-73
2021/07/12 05:55:42;;;;;;;4.22;2.58;;;16.30;99.90;;;15.53;100.00;100606.13;4183545;28;20132;-73
2021/07/12 05:57:43;;;;;;;4.15;2.90;;;16.30;99.90;;;15.57;100.00;100598.59;4183494;28;20063;-73
2021/07/12 05:59:44;;;;;;;4.88;2.92;;;16.30;99.90;;;15.62;100.00;100601.53;4183286;28;20029;-72
2021/07/12 06:01:45;;;;;;;8.98;2.97;;;16.30;99.90;;;15.69;100.00;100613.03;4183311;28;20036;-73
2021/07/12 06:03:45;;;;;;;5.63;2.90;;;16.40;99.90;;;15.65;100.00;100598.47;4183401;28;20064;-72
2021/07/12 06:05:46;;;;;;;5.32;3.20;;;16.40;99.90;;;15.65;100.00;100607.25;4184502;28;20492;-72
2021/07/12 06:07:47;;;;;;;5.88;2.95;;;16.40;99.90;;;15.73;100.00;100608.97;4189822;28;20037;-72
2021/07/12 06:09:48;;;;;;;6.40;3.30;;;16.50;99.90;;;15.62;100.00;100602.31;4183680;28;20084;-72
2021/07/12 06:11:49;;;;;;;6.30;3.00;;;16.50;99.90;;;15.55;100.00;100603.28;4184795;28;20029;-72
2021/07/12 06:13:51;;;;;;;5.22;3.13;;;16.50;99.90;;;15.72;100.00;100605.47;4188442;28;20052;-72
2021/07/12 06:15:52;;;;;;;4.45;2.80;;;16.50;99.90;;;15.78;100.00;100612.69;4169919;28;20056;-72
2021/07/12 06:17:53;;;;;;;5.22;3.10;;;16.50;99.90;;;15.84;100.00;100611.09;4187368;28;20025;-72
2021/07/12 06:19:53;;;;;;;5.80;3.20;;;16.60;99.90;;;15.80;100.00;100620.50;4186071;28;20052;-72
2021/07/12 06:21:54;;;;;;;5.00;3.53;;;16.60;99.90;;;15.75;100.00;100621.06;4187420;28;20029;-72
2021/07/12 06:23:55;;;;;;;6.38;3.20;;;16.60;99.90;;;15.84;100.00;100621.72;4187448;28;20076;-72
2021/07/12 06:25:56;;;;;;;5.13;3.20;;;16.60;99.90;;;15.79;100.00;100613.53;4186669;28;20024;-72
2021/07/12 06:27:57;;;;;;;5.05;3.47;;;16.60;99.90;;;15.83;100.00;100617.44;4196500;28;20025;-72
2021/07/12 06:29:58;;;;;;;6.07;3.42;;;16.60;99.90;;;15.85;100.00;100618.06;4184983;28;20027;-73
2021/07/12 06:31:59;;;;;;;8.93;4.55;;;16.60;99.90;;;15.55;100.00;100621.91;4185354;28;20037;-73
2021/07/12 06:34:00;;;;;;;7.05;4.75;;;16.60;99.90;;;15.62;100.00;100628.13;4184575;28;20025;-71
2021/07/12 06:36:01;;;;;;;7.47;4.60;;;16.60;99.90;;;15.53;100.00;100627.41;4185631;28;20048;-72
2021/07/12 06:38:03;;;;;;;5.00;4.38;;;16.50;99.90;;;15.50;100.00;100633.13;4185618;28;20029;-72
2021/07/12 06:40:05;;;;;;;14.65;5.32;;;16.40;99.90;;;15.29;100.00;100630.44;4185604;28;20132;-73
2021/07/12 06:42:06;;;;;;;8.10;5.10;;;16.30;99.90;;;15.36;100.00;100632.13;4167834;28;20443;-72
2021/07/12 06:44:07;;;;;;;7.60;4.97;;;16.20;99.90;;;15.36;100.00;100628.63;4168855;28;20033;-73
2021/07/12 06:46:08;;;;;;;12.13;5.63;;;16.20;99.90;;;15.33;100.00;100639.66;4167183;28;20432;-73
2021/07/12 06:48:09;;;;;;;7.38;5.35;;;16.20;99.90;;;15.39;100.00;100634.41;4150990;28;20120;-73
2021/07/12 06:50:11;;;;;;;10.55;5.43;;;16.20;99.90;;;15.33;100.00;100637.81;4167746;28;20493;-72
2021/07/12 06:52:12;;;;;;;9.68;6.00;;;16.30;99.90;;;15.29;100.00;100633.09;4152175;28;20033;-73
2021/07/12 06:54:13;;;;;;;11.60;6.88;;;16.30;99.90;;;15.26;100.00;100638.78;4169507;28;20037;-73
2021/07/12 06:56:14;;;;;;;10.98;6.22;;;16.30;99.90;;;15.56;100.00;100644.84;4168732;28;20072;-72
2021/07/12 06:58:15;;;;;;;9.77;5.43;;;16.40;99.90;;;15.56;100.00;100645.63;4168715;28;20040;-72
2021/07/12 07:00:17;;;;;;;10.43;5.88;;;16.50;99.90;;;15.69;100.00;100653.75;4168453;28;20447;-72
2021/07/12 07:02:18;;;;;;;6.43;5.68;;;16.60;99.90;;;15.70;100.00;100654.56;4169656;28;20029;-72
2021/07/12 07:04:19;;;;;;;8.65;5.97;;;16.60;99.90;;;15.79;100.00;100661.41;4175134;28;20426;-72
2021/07/12 07:06:20;;;;;;;10.15;5.63;;;16.60;99.90;;;15.48;100.00;100661.72;4170444;28;20056;-72
2021/07/12 07:08:21;;;;;;;7.82;5.40;;;16.50;99.90;;;15.55;100.00;100664.44;4168306;28;20025;-72
2021/07/12 07:10:22;;;;;;;8.43;5.10;;;16.50;99.90;;;15.68;100.00;100676.00;4175236;28;20037;-72
2021/07/12 07:12:23;;;;;;;11.88;6.60;;;16.50;99.90;;;15.68;100.00;100677.88;4171733;28;20440;-72
2021/07/12 07:14:24;;;;;;;8.07;6.05;;;16.50;99.90;;;15.48;100.00;100669.69;4170518;28;20045;-72
2021/07/12 07:16:25;;;;;;;10.93;6.30;;;16.50;99.90;;;15.36;100.00;100677.31;4168694;28;20025;-71
2021/07/12 07:18:26;;;;;;;9.10;5.25;;;16.40;99.90;;;15.63;100.00;100675.78;4168594;28;20056;-72
2021/07/12 07:20:27;;;;;;;12.00;6.05;;;16.50;99.90;;;15.74;100.00;100679.78;4168876;28;20117;-72
2021/07/12 07:22:28;;;;;;;10.13;5.72;;;16.60;99.90;;;15.83;100.00;100684.75;4151897;28;20041;-72
2021/07/12 07:24:29;;;;;;;12.05;5.60;;;16.60;99.90;;;15.93;100.00;100685.25;4169609;28;20060;-72
2021/07/12 07:26:30;;;;;;;8.57;5.35;;;16.70;99.90;;;15.50;98.92;100680.97;4168455;28;20451;-72
2021/07/12 07:28:30;;;;;;;11.45;5.20;;;16.70;99.90;;;15.63;99.52;100674.94;4169008;28;20536;-72
2021/07/12 07:30:32;;;;;;;8.70;5.50;;;16.60;99.90;;;15.84;99.28;100693.56;4169852;28;20079;-72
2021/07/12 07:32:34;;;;;;;9.23;5.75;;;16.70;99.90;;;15.84;98.68;100680.25;4169441;28;20484;-72
2021/07/12 07:34:35;;;;;;;8.07;6.15;;;16.70;99.90;;;15.92;99.03;100680.94;4168373;28;20374;-72
2021/07/12 07:36:36;;;;;;;7.93;5.60;;;16.80;99.90;;;16.22;98.37;100689.56;4168395;28;20479;-73
2021/07/12 07:38:38;;;;;;;10.32;4.97;;;17.00;99.90;;;15.98;97.06;100690.81;4168485;28;20060;-73
2021/07/12 07:40:39;;;;;;;7.97;5.03;;;17.20;99.90;;;16.23;96.82;100691.22;4182297;28;20045;-72
2021/07/12 07:42:40;;;;;;;9.65;5.32;;;17.30;99.90;;;16.22;98.60;100705.53;4168625;28;20084;-72
2021/07/12 07:44:41;;;;;;;8.93;5.45;;;17.30;99.90;;;15.67;100.00;100697.50;4188724;28;20037;-72
2021/07/12 07:46:42;;;;;;;10.15;6.18;;;17.10;99.90;;;15.61;100.00;100695.59;4183530;28;20480;-72
2021/07/12 07:48:44;;;;;;;5.82;5.05;;;16.90;99.90;;;15.55;99.08;100707.81;4202830;28;20024;-72
2021/07/12 07:50:45;;;;;;;8.13;5.13;;;16.70;99.90;;;15.60;98.35;100705.41;4202842;28;20098;-71
2021/07/12 07:52:46;;;;;;;8.85;5.05;;;16.70;99.90;;;15.72;98.78;100703.88;4184978;28;20021;-72
2021/07/12 07:54:47;;;;;;;6.93;5.07;;;16.70;99.90;;;15.90;97.58;100708.75;4185061;28;20068;-72
2021/07/12 07:56:48;;;;;;;6.95;5.25;;;16.70;99.90;;;15.89;96.50;100704.44;4185069;28;20029;-72
2021/07/12 07:58:49;;;;;;;8.80;5.93;;;16.90;99.90;;;15.99;98.61;100705.78;4202736;28;20084;-72
2021/07/12 08:00:50;;;;;;;6.82;5.45;;;17.10;99.90;;;16.29;94.68;100705.59;4202621;28;20109;-72
2021/07/12 08:02:52;;;;;;;9.68;5.55;;;17.30;99.90;;;16.37;97.55;100708.09;4202276;28;20090;-72
2021/07/12 08:04:53;;;;;;;6.40;5.78;;;17.50;99.90;;;16.45;95.39;100711.47;4184828;28;20088;-72
2021/07/12 08:06:55;;;;;;;7.85;5.50;;;17.50;99.90;;;16.13;92.65;100704.03;4202553;28;20028;-72
2021/07/12 08:08:56;;;;;;;9.27;5.28;;;17.60;99.90;;;16.34;92.72;100719.97;4202407;28;20025;-72
2021/07/12 08:10:57;;;;;;;10.63;5.28;;;17.70;99.90;;;16.67;92.01;100722.03;4202371;28;20511;-72
2021/07/12 08:12:58;;;;;;;7.18;5.68;;;17.80;99.90;;;16.91;93.06;100722.41;4202395;28;20028;-72
2021/07/12 08:14:59;;;;;;;8.27;4.68;;;18.00;99.90;;;17.06;91.58;100714.25;4184737;28;20052;-72
2021/07/12 08:17:00;;;;;;;7.97;4.63;;;18.20;99.90;;;17.14;90.56;100725.56;4184201;28;20106;-72
2021/07/12 08:19:01;;;;;;;8.27;4.80;;;18.40;99.90;;;17.01;91.09;100717.53;4184542;28;20067;-72
2021/07/12 08:21:03;;;;;;;5.53;4.53;;;18.40;99.90;;;17.00;90.81;100725.72;4167862;28;20029;-72
2021/07/12 08:23:04;;;;;;;11.63;5.13;;;18.40;99.90;;;16.50;94.01;100722.34;4184618;28;20032;-72
2021/07/12 08:25:08;;;;;;;5.47;4.30;;;18.10;99.90;;;16.83;89.80;100724.41;4184314;28;20029;-72
2021/07/12 08:27:09;;;;;;;5.47;3.92;;;18.00;99.90;;;16.95;88.95;100730.81;4184549;28;20021;-72
2021/07/12 08:29:09;;;;;;;5.18;4.30;;;18.00;99.90;;;17.19;90.66;100732.16;4202043;28;20530;-72
2021/07/12 08:31:11;;;;;;;8.30;3.45;;;18.10;99.90;;;17.04;88.06;100730.47;4202190;28;20116;-72